Time;durP1;ratioP1;P1;durP2;ratioP2;P2;SDS_P1;SDS_P2;PMS_P1;PMS_P2;Temp;Humidity;BMP_temperature;BMP_pressure;BME280_temperature;BME280_humidity;BME280_pressure;Samples;Min_cycle;Max_cycle;Signal;HPM_P1;HPM_P2
2021/09/07 00:00:10;;;;;;;9.38;5.30;;;;;;;7.12;70.22;98088.57;1817303;77;28200;-91
2021/09/07 00:02:39;;;;;;;8.43;4.85;;;;;;;7.09;70.25;98088.41;1843949;77;25688;-91
2021/09/07 00:05:08;;;;;;;9.13;4.87;;;;;;;7.08;70.22;98085.89;1839093;77;25789;-91
2021/09/07 00:07:35;;;;;;;6.47;4.47;;;;;;;7.07;70.19;98078.84;1811157;77;25845;-86
2021/09/07 00:10:05;;;;;;;8.18;5.20;;;;;;;7.04;70.15;98085.89;1835886;77;25232;-87
2021/09/07 00:12:33;;;;;;;8.25;4.28;;;;;;;7.02;70.25;98081.19;1819849;77;28287;-90
2021/09/07 00:15:00;;;;;;;8.35;5.10;;;;;;;7.01;70.29;98079.02;1831170;77;25827;-85
2021/09/07 00:17:26;;;;;;;7.65;5.00;;;;;;;6.99;70.36;98077.03;1823217;77;25640;-91
2021/09/07 00:19:53;;;;;;;7.00;4.65;;;;;;;6.98;70.39;98073.17;1827705;77;25901;-90
2021/09/07 00:22:20;;;;;;;10.15;5.17;;;;;;;6.97;70.34;98075.02;1825256;77;25740;-89
2021/09/07 00:24:46;;;;;;;6.62;4.65;;;;;;;6.95;70.35;98078.38;1824555;77;28270;-88
2021/09/07 00:27:13;;;;;;;10.53;5.65;;;;;;;6.95;70.45;98072.17;1821885;77;25714;-90
2021/09/07 00:29:39;;;;;;;9.80;5.00;;;;;;;6.97;70.49;98064.78;1829216;77;25789;-89
2021/09/07 00:32:07;;;;;;;9.05;4.85;;;;;;;6.99;70.50;98072.16;1825422;77;25741;-89
2021/09/07 00:34:34;;;;;;;6.40;4.62;;;;;;;7.00;70.52;98066.63;1823045;77;25717;-89
2021/09/07 00:37:03;;;;;;;7.72;4.62;;;;;;;7.02;70.52;98063.74;1824611;77;27549;-85
2021/09/07 00:39:29;;;;;;;10.43;5.15;;;;;;;7.01;70.48;98052.67;1790136;78;25651;-88
2021/09/07 00:41:56;;;;;;;9.70;4.83;;;;;;;6.96;70.57;98053.72;1801248;79;25785;-87
2021/09/07 00:44:23;;;;;;;8.53;4.83;;;;;;;6.90;70.65;98053.89;1801135;79;26345;-89
2021/09/07 00:46:59;;;;;;;8.05;4.87;;;;;;;6.83;70.74;98053.75;1801248;79;25841;-87
2021/09/07 00:49:29;;;;;;;8.28;4.70;;;;;;;6.73;70.81;98051.77;1801195;79;27382;-86
2021/09/07 00:51:56;;;;;;;9.35;5.03;;;;;;;6.64;71.03;98049.28;1801228;79;25717;-89
2021/09/07 00:54:27;;;;;;;10.65;5.03;;;;;;;6.66;71.22;98054.78;1801346;79;25545;-88
2021/09/07 00:56:55;;;;;;;8.43;4.90;;;;;;;6.67;71.19;98051.59;1801102;79;25799;-89
2021/09/07 00:59:23;;;;;;;8.48;5.15;;;;;;;6.62;71.16;98054.81;1801426;79;25703;-89
2021/09/07 01:01:50;;;;;;;10.05;4.67;;;;;;;6.55;71.10;98047.09;1801362;79;26788;-89
2021/09/07 01:04:18;;;;;;;7.37;4.55;;;;;;;6.54;71.26;98047.27;1801247;79;25737;-89
2021/09/07 01:06:44;;;;;;;7.25;4.78;;;;;;;6.54;71.33;98051.29;1801203;79;25782;-89
2021/09/07 01:09:12;;;;;;;8.98;4.33;;;;;;;6.54;71.29;98047.27;1801439;79;25879;-89
2021/09/07 01:11:39;;;;;;;7.05;4.45;;;;;;;6.55;71.39;98048.44;1801248;79;25750;-87
2021/09/07 01:14:05;;;;;;;7.50;4.55;;;;;;;6.53;71.42;98046.42;1801402;79;27406;-87
2021/09/07 01:16:32;;;;;;;8.50;4.03;;;;;;;6.54;71.38;98049.44;1779790;79;25802;-88
2021/09/07 01:19:00;;;;;;;11.33;4.60;;;;;;;6.52;71.36;98048.77;1800221;79;25694;-88
2021/09/07 01:21:27;;;;;;;8.10;4.40;;;;;;;6.51;71.33;98051.15;1800996;79;25809;-88
2021/09/07 01:23:54;;;;;;;8.73;4.50;;;;;;;6.50;71.39;98046.79;1801221;79;25690;-89
2021/09/07 01:26:22;;;;;;;9.38;4.50;;;;;;;6.48;71.42;98049.64;1801359;79;27526;-88
2021/09/07 01:28:49;;;;;;;5.80;4.60;;;;;;;6.43;71.45;98041.75;1800814;79;25907;-86
2021/09/07 01:31:17;;;;;;;19.92;6.53;;;;;;;6.40;71.50;98032.73;1801296;79;25670;-89
2021/09/07 01:33:47;;;;;;;7.17;4.35;;;;;;;6.36;71.48;98039.42;1801190;79;25765;-89
2021/09/07 01:36:12;;;;;;;6.62;4.17;;;;;;;6.35;71.48;98037.75;1800964;79;25695;-89
2021/09/07 01:38:38;;;;;;;6.28;4.28;;;;;;;6.31;71.52;98041.77;1782897;79;28063;-89
2021/09/07 01:41:05;;;;;;;8.08;4.60;;;;;;;6.22;71.58;98036.92;1755539;80;25738;-89
2021/09/07 01:43:31;;;;;;;9.33;5.03;;;;;;;6.16;71.66;98036.77;1795679;79;25720;-87
2021/09/07 01:45:58;;;;;;;7.47;4.33;;;;;;;6.16;71.82;98033.56;1741328;81;25834;-88
2021/09/07 01:48:26;;;;;;;8.53;4.78;;;;;;;6.18;71.88;98033.39;1773432;79;25816;-87
2021/09/07 01:50:53;;;;;;;7.60;4.70;;;;;;;6.20;71.85;98040.27;1762240;80;27638;-89
2021/09/07 01:53:20;;;;;;;7.28;4.60;;;;;;;6.20;71.80;98039.43;1795626;79;25781;-89
2021/09/07 01:55:46;;;;;;;8.00;4.53;;;;;;;6.16;71.85;98030.07;1746314;80;25900;-89
2021/09/07 01:58:13;;;;;;;9.15;4.55;;;;;;;6.18;71.90;98030.72;1767841;78;25781;-88
2021/09/07 02:00:40;;;;;;;6.92;3.98;;;;;;;6.19;71.89;98034.57;1782268;78;25706;-90
2021/09/07 02:03:07;;;;;;;7.50;4.30;;;;;;;6.20;71.81;98030.05;1764390;79;27529;-81
2021/09/07 02:05:33;;;;;;;7.30;4.20;;;;;;;6.21;71.85;98030.38;1764407;79;26684;-88
2021/09/07 02:08:00;;;;;;;11.63;4.90;;;;;;;6.22;71.80;98030.22;1785055;79;26604;-89
2021/09/07 02:10:26;;;;;;;7.67;5.10;;;;;;;6.21;71.82;98030.38;1795894;78;25670;-89
2021/09/07 02:12:53;;;;;;;7.78;4.45;;;;;;;6.19;71.95;98024.34;1796043;79;25731;-86
2021/09/07 02:15:20;;;;;;;8.25;4.22;;;;;;;6.19;72.00;98035.08;1796020;78;27461;-89
2021/09/07 02:17:46;;;;;;;8.40;4.62;;;;;;;6.14;71.97;98031.08;1780866;79;25986;-88
2021/09/07 02:20:13;;;;;;;5.95;4.47;;;;;;;6.13;71.91;98036.60;1764318;79;25844;-87
2021/09/07 02:22:41;;;;;;;8.53;4.37;;;;;;;6.11;71.96;98038.11;1776687;79;25757;-88
2021/09/07 02:25:09;;;;;;;6.35;4.00;;;;;;;6.10;71.97;98035.59;1773756;79;25776;-81
2021/09/07 02:27:36;;;;;;;6.25;3.92;;;;;;;6.05;71.96;98030.72;1795804;78;27626;-89
2021/09/07 02:30:06;;;;;;;6.58;4.20;;;;;;;6.03;72.06;98032.75;1768574;78;25751;-89
2021/09/07 02:32:32;;;;;;;6.90;3.85;;;;;;;6.00;72.10;98035.77;1776201;78;25770;-88
2021/09/07 02:34:59;;;;;;;7.15;4.47;;;;;;;5.97;72.13;98032.06;1781591;79;27027;-89
2021/09/07 02:37:26;;;;;;;7.90;3.77;;;;;;;5.97;72.11;98038.77;1735895;79;25738;-87
2021/09/07 02:39:52;;;;;;;6.10;3.90;;;;;;;5.96;72.19;98034.41;1777927;78;27526;-87
2021/09/07 02:42:19;;;;;;;7.17;4.37;;;;;;;5.87;72.07;98030.03;1801426;78;26276;-85
2021/09/07 02:44:45;;;;;;;7.10;4.67;;;;;;;5.80;72.26;98022.30;1801449;78;25230;-88
2021/09/07 02:47:12;;;;;;;7.50;4.97;;;;;;;5.78;72.43;98029.69;1786067;79;26322;-86
2021/09/07 02:49:38;;;;;;;7.83;5.05;;;;;;;5.74;72.52;98022.98;1792224;78;25708;-87
2021/09/07 02:52:05;;;;;;;7.90;4.78;;;;;;;5.73;72.69;98023.48;1770650;78;27594;-84
2021/09/07 02:54:32;;;;;;;8.18;4.65;;;;;;;5.75;72.79;98024.66;1792593;78;26036;-79
2021/09/07 02:56:59;;;;;;;8.60;5.03;;;;;;;5.75;72.77;98024.66;1801422;78;25776;-86
2021/09/07 02:59:25;;;;;;;8.65;4.30;;;;;;;5.76;72.80;98020.98;1800808;79;25804;-81
2021/09/07 03:01:52;;;;;;;8.43;4.75;;;;;;;5.76;72.82;98027.17;1794642;78;25742;-86
2021/09/07 03:04:18;;;;;;;8.43;5.03;;;;;;;5.76;72.82;98025.00;1795407;79;27399;-85
2021/09/07 03:06:48;;;;;;;7.90;5.00;;;;;;;5.71;72.86;98024.64;1801070;79;26053;-87
2021/09/07 03:09:13;;;;;;;7.92;4.92;;;;;;;5.69;73.00;98029.33;1801039;79;25542;-87
2021/09/07 03:11:40;;;;;;;7.15;4.10;;;;;;;5.67;73.07;98026.84;1801051;79;26413;-87
2021/09/07 03:14:06;;;;;;;10.40;4.62;;;;;;;5.68;73.06;98029.83;1762632;79;25729;-88
2021/09/07 03:16:36;;;;;;;7.10;4.12;;;;;;;5.67;73.14;98029.52;1800632;78;27508;-80
2021/09/07 03:19:04;;;;;;;7.28;4.55;;;;;;;5.67;73.24;98030.02;1801092;79;25745;-88
2021/09/07 03:21:30;;;;;;;8.25;4.40;;;;;;;5.66;73.34;98022.98;1801280;79;25793;-88
2021/09/07 03:23:57;;;;;;;8.13;4.40;;;;;;;5.66;73.38;98030.52;1801133;79;26566;-84
2021/09/07 03:26:24;;;;;;;9.50;5.03;;;;;;;5.70;73.46;98032.34;1801230;79;25797;-87
2021/09/07 03:28:50;;;;;;;7.03;4.47;;;;;;;5.71;73.51;98025.98;1799758;79;27472;-86
2021/09/07 03:31:17;;;;;;;7.85;4.90;;;;;;;5.75;73.59;98028.67;1800870;79;25923;-87
2021/09/07 03:33:43;;;;;;;12.13;7.30;;;;;;;5.77;73.64;98030.19;1800094;78;26390;-89
2021/09/07 03:36:10;;;;;;;9.80;6.47;;;;;;;5.79;73.65;98035.39;1801270;79;26046;-89
2021/09/07 03:38:37;;;;;;;11.95;7.20;;;;;;;5.80;73.76;98035.70;1800997;79;25474;-88
2021/09/07 03:41:03;;;;;;;16.35;7.08;;;;;;;5.79;73.75;98034.05;1801155;79;28218;-87
2021/09/07 03:43:30;;;;;;;13.60;7.70;;;;;;;5.79;73.83;98035.39;1801095;79;25256;-85
2021/09/07 03:45:56;;;;;;;13.10;8.25;;;;;;;5.70;73.83;98035.02;1801118;79;25707;-90
2021/09/07 03:48:23;;;;;;;12.45;8.03;;;;;;;5.62;73.92;98034.52;1801196;79;25777;-90
2021/09/07 03:50:50;;;;;;;12.85;8.50;;;;;;;5.63;74.11;98038.03;1801194;79;25752;-87
2021/09/07 03:53:17;;;;;;;12.70;7.20;;;;;;;5.66;74.20;98043.91;1801282;79;27591;-90
2021/09/07 03:55:43;;;;;;;10.28;6.17;;;;;;;5.71;74.21;98044.73;1800114;79;25906;-90
2021/09/07 03:58:10;;;;;;;8.75;5.40;;;;;;;5.73;74.20;98040.05;1800300;78;25341;-84
2021/09/07 04:00:36;;;;;;;9.48;5.30;;;;;;;5.77;74.35;98041.41;1801335;78;25879;-89
2021/09/07 04:03:18;;;;;;;8.58;5.20;;;;;;;5.77;74.32;98047.61;1801077;78;25478;-88
2021/09/07 04:05:45;;;;;;;7.28;5.10;;;;;;;5.79;74.40;98042.09;1763525;80;27380;-84
2021/09/07 04:08:12;;;;;;;8.80;5.42;;;;;;;5.76;74.37;98034.37;1801206;79;25860;-87
2021/09/07 04:10:39;;;;;;;10.23;5.53;;;;;;;5.78;74.49;98046.61;1801371;79;25863;-86
2021/09/07 04:13:06;;;;;;;13.78;6.40;;;;;;;5.78;74.56;98037.73;1801394;79;25923;-87
2021/09/07 04:15:33;;;;;;;8.60;6.08;;;;;;;5.78;74.57;98036.39;1795068;78;25294;-87
2021/09/07 04:17:59;;;;;;;14.07;6.30;;;;;;;5.82;74.68;98039.05;1800882;78;28330;-85
2021/09/07 04:20:26;;;;;;;9.50;5.62;;;;;;;5.87;74.73;98040.74;1801289;79;25710;-87
2021/09/07 04:22:53;;;;;;;11.00;5.85;;;;;;;5.92;74.74;98045.12;1801257;79;25299;-87
2021/09/07 04:25:19;;;;;;;9.63;5.28;;;;;;;5.91;74.74;98043.47;1801352;79;25830;-87
2021/09/07 04:27:46;;;;;;;9.88;5.87;;;;;;;5.87;74.56;98043.42;1801151;79;25792;-87
2021/09/07 04:30:13;;;;;;;9.33;5.37;;;;;;;5.84;74.57;98045.59;1801403;78;28223;-86
2021/09/07 04:32:39;;;;;;;19.37;9.10;;;;;;;5.83;74.70;98043.41;1801184;79;26489;-86
2021/09/07 04:35:06;;;;;;;17.57;8.88;;;;;;;5.85;74.84;98044.59;1801364;79;25741;-87
2021/09/07 04:37:33;;;;;;;17.10;8.48;;;;;;;5.89;74.91;98044.13;1791726;78;25760;-85
2021/09/07 04:40:00;;;;;;;17.82;7.92;;;;;;;5.93;74.93;98045.45;1795594;78;25831;-86
2021/09/07 04:42:26;;;;;;;15.58;8.43;;;;;;;5.96;75.01;98042.45;1783026;78;27488;-87
2021/09/07 04:44:53;;;;;;;15.93;8.50;;;;;;;6.02;75.02;98048.50;1800924;79;25830;-87
2021/09/07 04:47:19;;;;;;;19.20;8.85;;;;;;;6.07;75.00;98047.48;1799907;79;25764;-86
2021/09/07 04:49:46;;;;;;;22.30;9.78;;;;;;;6.11;75.06;98047.48;1801423;79;26278;-86
2021/09/07 04:52:12;;;;;;;18.82;9.33;;;;;;;6.17;75.14;98046.46;1801338;79;25749;-87
2021/09/07 04:54:39;;;;;;;17.55;9.80;;;;;;;6.22;75.18;98049.48;1801270;79;27348;-87
2021/09/07 04:57:06;;;;;;;23.45;9.95;;;;;;;6.27;75.23;98052.02;1801223;79;25776;-87
2021/09/07 04:59:32;;;;;;;19.30;8.45;;;;;;;6.33;75.29;98047.80;1801298;79;25687;-86
2021/09/07 05:01:59;;;;;;;28.07;9.85;;;;;;;6.38;75.33;98049.48;1800988;78;25849;-87
2021/09/07 05:04:25;;;;;;;21.37;10.50;;;;;;;6.43;75.34;98051.14;1801363;79;25562;-87
2021/09/07 05:06:52;;;;;;;24.23;13.68;;;;;;;6.49;75.46;98047.80;1801214;79;28299;-87
2021/09/07 05:09:19;;;;;;;31.27;14.78;;;;;;;6.57;75.55;98048.27;1801235;79;25714;-88
2021/09/07 05:11:45;;;;;;;27.67;15.72;;;;;;;6.64;75.50;98047.41;1801319;78;25733;-83
2021/09/07 05:14:12;;;;;;;26.40;14.47;;;;;;;6.71;75.55;98047.08;1801337;79;25809;-87
2021/09/07 05:16:38;;;;;;;28.35;13.83;;;;;;;6.78;75.56;98044.53;1801175;78;25793;-86
2021/09/07 05:19:05;;;;;;;21.97;11.22;;;;;;;6.86;75.64;98052.58;1788310;79;27175;-83
2021/09/07 05:21:32;;;;;;;19.73;10.68;;;;;;;6.93;75.70;98047.34;1801215;78;26374;-86
2021/09/07 05:23:58;;;;;;;26.75;11.20;;;;;;;7.01;75.73;98044.63;1801356;78;25697;-87
2021/09/07 05:26:25;;;;;;;23.65;10.38;;;;;;;7.09;75.81;98042.77;1800943;78;25754;-85
2021/09/07 05:28:51;;;;;;;20.10;10.10;;;;;;;7.18;75.84;98040.88;1801044;78;25733;-86
2021/09/07 05:31:18;;;;;;;17.17;9.90;;;;;;;7.24;75.85;98045.02;1801216;78;27413;-87
2021/09/07 05:33:45;;;;;;;17.35;9.80;;;;;;;7.30;75.87;98035.45;1774642;78;26295;-87
2021/09/07 05:36:11;;;;;;;20.40;10.72;;;;;;;7.38;75.88;98040.77;1778270;78;25799;-88
2021/09/07 05:38:38;;;;;;;22.35;10.35;;;;;;;7.46;75.90;98043.94;1782792;78;25811;-87
2021/09/07 05:41:05;;;;;;;18.42;10.03;;;;;;;7.55;75.94;98042.87;1774973;78;25835;-88
2021/09/07 05:43:31;;;;;;;24.25;10.45;;;;;;;7.62;76.01;98041.14;1766397;79;28246;-88
2021/09/07 05:45:58;;;;;;;19.42;10.93;;;;;;;7.69;76.08;98038.59;1822017;78;25843;-88
2021/09/07 05:48:25;;;;;;;24.82;9.65;;;;;;;7.79;76.22;98033.81;1799636;77;25788;-89
2021/09/07 05:50:51;;;;;;;16.37;9.55;;;;;;;7.88;76.29;98033.58;1822106;78;26521;-89
2021/09/07 05:53:18;;;;;;;16.35;10.15;;;;;;;7.98;76.26;98029.30;1799560;78;25693;-87
2021/09/07 05:55:45;;;;;;;22.07;9.60;;;;;;;8.08;76.37;98025.88;1765892;80;27363;-88
2021/09/07 05:58:11;;;;;;;16.48;9.75;;;;;;;8.17;76.36;98023.45;1798992;77;25807;-89
2021/09/07 06:00:38;;;;;;;21.07;9.40;;;;;;;8.27;76.36;98025.88;1799269;78;25775;-85
2021/09/07 06:03:08;;;;;;;22.45;9.93;;;;;;;8.37;76.33;98025.64;1819543;78;25901;-89
2021/09/07 06:05:33;;;;;;;21.12;9.58;;;;;;;8.50;76.38;98033.93;1781306;78;25870;-88
2021/09/07 06:07:59;;;;;;;15.55;8.90;;;;;;;8.61;76.48;98030.80;1791117;78;27579;-90
2021/09/07 06:10:26;;;;;;;17.85;9.18;;;;;;;8.73;76.49;98033.36;1820807;78;25798;-90
2021/09/07 06:12:53;;;;;;;14.03;8.38;;;;;;;8.85;76.47;98035.92;1797528;78;25739;-91
2021/09/07 06:15:19;;;;;;;15.48;8.35;;;;;;;8.96;76.38;98043.53;1798794;78;25866;-90
2021/09/07 06:17:46;;;;;;;15.90;9.10;;;;;;;9.07;76.25;98039.53;1767174;80;25749;-89
2021/09/07 06:20:13;;;;;;;20.45;9.65;;;;;;;9.17;76.27;98046.84;1797556;78;27384;-91
2021/09/07 06:22:39;;;;;;;16.87;8.60;;;;;;;9.27;76.36;98047.39;1797654;78;25732;-88
2021/09/07 06:25:07;;;;;;;19.82;9.23;;;;;;;9.36;76.65;98045.41;1797625;78;25726;-91
2021/09/07 06:27:34;;;;;;;16.85;9.10;;;;;;;9.44;76.52;98045.30;1797754;78;25657;-90
2021/09/07 06:30:00;;;;;;;16.95;9.30;;;;;;;9.54;76.61;98038.29;1797647;78;25685;-91
2021/09/07 06:32:27;;;;;;;15.78;9.10;;;;;;;9.62;76.58;98037.66;1797697;79;28205;-89
2021/09/07 06:34:53;;;;;;;16.45;8.58;;;;;;;9.73;76.48;98039.85;1820579;78;25750;-91
2021/09/07 06:37:20;;;;;;;12.18;8.33;;;;;;;9.85;76.38;98042.05;1797646;78;25832;-90
2021/09/07 06:39:46;;;;;;;21.68;8.20;;;;;;;9.95;76.23;98040.70;1775914;79;26555;-84
2021/09/07 06:42:13;;;;;;;13.48;7.90;;;;;;;10.06;76.30;98048.28;1793006;78;25795;-89
2021/09/07 06:44:40;;;;;;;16.32;9.33;;;;;;;10.17;76.34;98048.27;1842344;77;27365;-90
2021/09/07 06:47:06;;;;;;;14.43;8.85;;;;;;;10.28;76.17;98049.14;1817259;77;25865;-88
2021/09/07 06:49:33;;;;;;;13.48;8.83;;;;;;;10.38;76.16;98045.62;1825158;77;25883;-87
2021/09/07 06:51:59;;;;;;;18.65;8.53;;;;;;;10.50;76.09;98045.09;1820353;77;25780;-85
2021/09/07 06:54:26;;;;;;;13.50;8.15;;;;;;;10.61;76.07;98051.30;1831467;77;25732;-88
2021/09/07 06:56:52;;;;;;;12.53;8.13;;;;;;;10.71;75.88;98048.57;1812066;77;27520;-88
2021/09/07 06:59:19;;;;;;;12.78;8.55;;;;;;;10.81;75.77;98054.45;1812962;77;25717;-90
2021/09/07 07:01:46;;;;;;;12.73;8.65;;;;;;;10.93;75.64;98051.20;1823146;77;25790;-91
2021/09/07 07:04:12;;;;;;;16.67;8.73;;;;;;;11.05;75.74;98053.16;1844365;77;25703;-88
2021/09/07 07:06:39;;;;;;;13.38;8.75;;;;;;;11.22;75.73;98056.91;1820558;77;25452;-81
2021/09/07 07:09:05;;;;;;;15.23;8.65;;;;;;;11.41;75.77;98057.51;1843620;77;28106;-90
2021/09/07 07:11:32;;;;;;;13.10;7.47;;;;;;;11.60;75.74;98056.75;1842751;77;25826;-90
2021/09/07 07:13:59;;;;;;;12.15;7.97;;;;;;;11.81;75.69;98048.55;1843418;77;25818;-89
2021/09/07 07:16:25;;;;;;;11.68;7.90;;;;;;;12.04;75.74;98043.30;1844272;77;26256;-89
2021/09/07 07:18:52;;;;;;;10.93;7.53;;;;;;;12.28;75.59;98043.23;1844130;77;25814;-88
2021/09/07 07:21:19;;;;;;;10.95;7.05;;;;;;;12.51;75.04;98051.27;1821570;77;28236;-87
2021/09/07 07:23:47;;;;;;;14.05;7.45;;;;;;;12.71;74.44;98043.65;1843949;77;25712;-89
2021/09/07 07:26:13;;;;;;;14.25;7.15;;;;;;;12.88;73.90;98044.90;1844109;77;26433;-88
2021/09/07 07:28:40;;;;;;;11.25;6.50;;;;;;;13.03;73.52;98044.16;1833882;77;25760;-90
2021/09/07 07:31:06;;;;;;;10.08;7.20;;;;;;;13.15;73.14;98041.14;1834972;77;25821;-88
2021/09/07 07:33:33;;;;;;;12.00;7.20;;;;;;;13.28;73.34;98042.42;1835251;77;28717;-88
2021/09/07 07:36:00;;;;;;;9.38;7.30;;;;;;;13.40;73.03;98047.22;1828406;77;25707;-86
2021/09/07 07:38:26;;;;;;;13.95;6.97;;;;;;;13.52;73.00;98034.66;1826857;77;25730;-89
2021/09/07 07:40:53;;;;;;;11.43;6.90;;;;;;;13.63;72.75;98035.34;1823713;77;26500;-88
2021/09/07 07:43:23;;;;;;;19.25;7.08;;;;;;;13.79;72.62;98040.25;1822336;77;25242;-88
2021/09/07 07:45:48;;;;;;;12.35;6.47;;;;;;;14.02;72.92;98035.63;1826126;77;27382;-89
2021/09/07 07:48:14;;;;;;;11.60;6.87;;;;;;;14.20;72.61;98040.34;1839296;77;25792;-89
2021/09/07 07:50:41;;;;;;;11.95;7.03;;;;;;;14.33;72.48;98038.90;1836014;77;25869;-87
2021/09/07 07:53:07;;;;;;;10.43;6.58;;;;;;;14.44;72.46;98042.30;1822997;77;25831;-86
2021/09/07 07:55:34;;;;;;;13.43;6.90;;;;;;;14.58;72.25;98034.35;1822331;77;25745;-88
2021/09/07 07:58:01;;;;;;;10.38;6.42;;;;;;;14.80;72.02;98040.75;1821433;77;27813;-89
2021/09/07 08:00:27;;;;;;;12.55;7.60;;;;;;;15.09;71.97;98034.63;1822577;77;25791;-88
2021/09/07 08:02:54;;;;;;;14.28;7.70;;;;;;;15.48;71.64;98050.48;1838015;77;25808;-89
2021/09/07 08:05:21;;;;;;;15.70;8.15;;;;;;;15.80;71.04;98044.92;1844427;77;25845;-90
2021/09/07 08:07:47;;;;;;;12.60;7.65;;;;;;;15.95;70.26;98048.58;1844452;77;25732;-88
2021/09/07 08:10:14;;;;;;;11.97;6.70;;;;;;;16.09;69.93;98032.36;1833854;77;27399;-90
2021/09/07 08:12:41;;;;;;;12.13;6.92;;;;;;;16.30;69.23;98032.39;1832198;77;25966;-91
2021/09/07 08:15:09;;;;;;;11.00;7.12;;;;;;;16.47;68.89;98027.39;1821207;77;25965;-92
2021/09/07 08:17:36;;;;;;;11.57;6.90;;;;;;;16.63;68.52;98031.36;1844626;77;25237;-91
2021/09/07 08:20:04;;;;;;;10.68;7.47;;;;;;;16.77;68.33;98032.81;1815927;77;25882;-90
2021/09/07 08:22:31;;;;;;;10.93;6.15;;;;;;;17.01;68.33;98027.37;1827219;77;27363;-91
2021/09/07 08:24:58;;;;;;;12.55;7.08;;;;;;;17.23;67.53;98028.42;1843339;77;25707;-91
2021/09/07 08:27:24;;;;;;;10.45;5.83;;;;;;;17.54;67.12;98034.83;1842101;77;25741;-92
2021/09/07 08:29:51;;;;;;;10.45;6.10;;;;;;;17.99;66.71;98034.16;1820557;77;25870;-89
2021/09/07 08:32:18;;;;;;;8.48;5.95;;;;;;;18.31;65.99;98036.67;1812479;77;25684;-91
2021/09/07 08:34:44;;;;;;;9.50;6.35;;;;;;;18.53;65.15;98036.78;1812811;77;28198;-85
2021/09/07 08:37:11;;;;;;;11.90;6.80;;;;;;;18.64;64.83;98035.08;1813919;77;25819;-91
2021/09/07 08:39:37;;;;;;;9.75;6.22;;;;;;;18.72;64.69;98029.75;1812710;77;26320;-91
2021/09/07 08:42:09;;;;;;;9.68;7.15;;;;;;;18.77;64.65;98029.28;1805314;78;26473;-92
2021/09/07 08:44:36;;;;;;;10.08;7.50;;;;;;;18.85;64.48;98038.44;1809144;78;25890;-93
2021/09/07 08:47:03;;;;;;;9.85;6.58;;;;;;;18.89;63.66;98037.41;1826315;78;28217;-90
2021/09/07 08:49:30;;;;;;;8.40;6.20;;;;;;;18.95;63.61;98041.36;1808429;78;26316;-92
2021/09/07 08:51:56;;;;;;;9.58;6.58;;;;;;;19.04;63.55;98039.02;1811999;78;25690;-90
2021/09/07 08:54:23;;;;;;;11.25;6.83;;;;;;;19.13;63.13;98038.88;1807586;78;25847;-86
2021/09/07 08:56:50;;;;;;;11.12;7.35;;;;;;;19.22;63.27;98037.91;1810957;78;26002;-89
2021/09/07 08:59:17;;;;;;;11.30;6.47;;;;;;;19.32;62.92;98038.08;1808747;78;27812;-91
2021/09/07 09:01:51;;;;;;;8.58;6.78;;;;;;;19.52;62.38;98038.92;1817985;78;25780;-87
2021/09/07 09:04:27;;;;;;;10.88;6.83;;;;;;;19.88;61.84;98040.20;1834973;78;26191;-90
2021/09/07 09:06:55;;;;;;;10.10;7.17;;;;;;;20.33;61.58;98033.86;1814138;78;25721;-88
2021/09/07 09:09:21;;;;;;;11.63;7.08;;;;;;;20.78;60.92;98031.28;1824363;78;25367;-91
2021/09/07 09:11:54;;;;;;;10.95;6.95;;;;;;;21.10;60.32;98034.02;1834271;78;27262;-85
2021/09/07 09:14:43;;;;;;;11.90;7.40;;;;;;;21.34;59.51;98036.69;1822599;78;25745;-90
2021/09/07 09:17:21;;;;;;;13.60;7.12;;;;;;;21.60;58.95;98034.08;1829522;78;25733;-90
2021/09/07 09:19:56;;;;;;;9.98;6.90;;;;;;;21.82;58.39;98025.94;1833943;78;26438;-90
2021/09/07 09:22:51;;;;;;;13.70;6.92;;;;;;;22.00;57.65;98027.40;1827016;77;25637;-89
2021/09/07 09:25:38;;;;;;;10.50;7.87;;;;;;;22.22;56.84;98028.02;1835497;78;28246;-90
2021/09/07 09:28:21;;;;;;;10.15;7.22;;;;;;;22.51;56.49;98017.90;1825444;77;25820;-89
2021/09/07 09:30:56;;;;;;;11.93;8.18;;;;;;;22.69;56.25;98016.55;1825805;78;25708;-90
2021/09/07 09:33:26;;;;;;;10.32;7.00;;;;;;;22.82;55.33;98020.17;1823728;78;25721;-89
2021/09/07 09:35:57;;;;;;;8.60;6.65;;;;;;;22.84;54.80;98018.77;1832909;78;25673;-88
2021/09/07 09:38:27;;;;;;;8.90;6.35;;;;;;;22.87;54.98;98011.89;1825462;77;27379;-88
2021/09/07 09:40:58;;;;;;;11.63;6.72;;;;;;;22.80;54.42;98012.73;1833429;77;26191;-89
2021/09/07 09:43:38;;;;;;;13.43;6.50;;;;;;;22.74;54.10;98010.48;1834519;77;25680;-91
2021/09/07 09:46:24;;;;;;;11.57;6.50;;;;;;;22.87;53.36;98010.52;1836129;77;26689;-93
2021/09/07 09:48:53;;;;;;;10.50;6.83;;;;;;;23.11;54.07;98008.02;1815369;77;25763;-89
2021/09/07 09:51:23;;;;;;;11.22;6.67;;;;;;;23.38;53.60;98011.83;1825950;77;28186;-91
2021/09/07 09:53:51;;;;;;;8.75;6.65;;;;;;;23.33;53.15;98007.14;1805248;77;25780;-88
2021/09/07 09:56:18;;;;;;;8.95;6.58;;;;;;;23.26;52.71;98001.94;1844262;77;25807;-90
2021/09/07 09:58:44;;;;;;;12.65;7.78;;;;;;;23.29;52.44;98001.39;1844009;77;26501;-87
2021/09/07 10:01:11;;;;;;;12.45;6.92;;;;;;;23.21;51.34;98004.70;1832419;77;25668;-86
2021/09/07 10:03:40;;;;;;;11.55;7.72;;;;;;;23.16;50.93;98003.89;1822157;77;27431;-87
2021/09/07 10:06:07;;;;;;;8.70;7.40;;;;;;;22.97;50.90;98002.25;1844012;77;26014;-87
2021/09/07 10:08:34;;;;;;;12.47;7.62;;;;;;;22.88;50.97;98005.29;1810808;77;25841;-86
2021/09/07 10:11:06;;;;;;;10.40;7.83;;;;;;;22.80;51.18;98003.92;1808924;77;26745;-88
2021/09/07 10:13:35;;;;;;;15.05;7.20;;;;;;;22.75;51.27;98000.30;1843200;77;25798;-89
2021/09/07 10:16:09;;;;;;;17.00;7.67;;;;;;;22.58;51.49;97995.89;1844113;77;27372;-88
2021/09/07 10:21:06;;;;;;;8.73;7.50;;;;;;;22.54;51.50;98003.06;1790495;77;26470;-90
2021/09/07 10:23:54;;;;;;;11.33;7.78;;;;;;;22.53;51.25;97998.66;1816771;77;25745;-88
2021/09/07 10:26:40;;;;;;;9.45;7.92;;;;;;;22.54;51.07;98004.44;1843174;77;25656;-88
2021/09/07 10:29:11;;;;;;;10.43;7.67;;;;;;;22.54;51.16;98002.23;1844006;77;27228;-89
2021/09/07 10:31:53;;;;;;;9.93;7.62;;;;;;;22.52;51.40;97997.55;1830453;77;25677;-83
2021/09/07 10:34:25;;;;;;;9.28;7.87;;;;;;;22.59;51.31;97999.46;1796938;77;25879;-80
2021/09/07 10:37:08;;;;;;;11.68;7.67;;;;;;;22.66;50.92;97995.91;1844375;77;26345;-86
2021/09/07 10:39:43;;;;;;;11.83;6.97;;;;;;;22.79;50.95;97996.77;1844276;77;25807;-89
2021/09/07 10:42:13;;;;;;;10.55;7.87;;;;;;;22.89;50.42;97991.80;1841298;77;28139;-86
2021/09/07 10:44:59;;;;;;;9.80;7.45;;;;;;;23.01;50.04;97995.64;1840910;77;26346;-87
2021/09/07 10:47:46;;;;;;;10.32;8.20;;;;;;;23.07;49.59;97994.52;1839601;77;25823;-85
2021/09/07 10:50:10;;;;;;;12.53;8.25;;;;;;;23.13;49.37;97984.61;1805985;77;26557;-87
2021/09/07 10:52:38;;;;;;;9.85;8.08;;;;;;;23.24;49.19;97987.63;1840295;77;25903;-88
2021/09/07 10:55:10;;;;;;;10.23;7.87;;;;;;;23.31;48.76;97993.65;1840552;77;27426;-89
2021/09/07 10:57:43;;;;;;;12.55;8.65;;;;;;;23.38;48.68;97981.53;1835067;77;25808;-88
2021/09/07 11:00:24;;;;;;;12.88;8.90;;;;;;;23.45;48.21;97983.42;1815736;77;25223;-82
2021/09/07 11:03:01;;;;;;;10.20;9.07;;;;;;;23.55;48.04;97987.55;1838151;77;26268;-89
2021/09/07 11:05:34;;;;;;;9.80;8.45;;;;;;;23.63;48.22;97981.48;1840613;77;25728;-88
2021/09/07 11:08:19;;;;;;;11.85;8.45;;;;;;;23.69;47.93;97981.16;1840586;77;27382;-88
2021/09/07 11:10:52;;;;;;;11.85;8.98;;;;;;;23.71;47.44;97986.40;1817963;77;25791;-89
2021/09/07 11:13:30;;;;;;;11.88;7.97;;;;;;;23.73;47.10;97984.74;1826678;77;26275;-87
2021/09/07 11:16:03;;;;;;;9.88;8.63;;;;;;;23.81;47.30;97980.84;1840956;77;26486;-89
2021/09/07 11:18:35;;;;;;;10.38;8.18;;;;;;;23.90;47.13;97976.95;1840693;77;25652;-89
2021/09/07 11:21:07;;;;;;;11.38;8.40;;;;;;;23.98;47.13;97977.18;1841141;77;27422;-86
2021/09/07 11:23:35;;;;;;;;;;;;;;;24.04;47.01;97980.16;1843623;77;26116;-91
2021/09/07 11:26:19;;;;;;;11.48;8.05;;;;;;;24.11;45.40;97977.11;1841012;77;25234;-88
2021/09/07 11:28:48;;;;;;;10.72;8.25;;;;;;;24.09;46.27;97975.73;1839860;77;25697;-87
2021/09/07 11:31:15;;;;;;;9.60;7.40;;;;;;;24.14;46.26;97973.80;1841018;77;25747;-88
2021/09/07 11:33:44;;;;;;;10.20;8.40;;;;;;;24.22;45.51;97970.45;1840948;77;28160;-90
2021/09/07 11:36:17;;;;;;;10.38;7.72;;;;;;;24.23;45.77;97964.38;1827677;77;25851;-87
2021/09/07 11:38:48;;;;;;;11.33;7.90;;;;;;;24.26;45.32;97958.30;1832019;77;25257;-92
2021/09/07 11:41:24;;;;;;;9.85;8.25;;;;;;;24.25;44.92;97962.99;1839653;77;25809;-86